Create Custom Reports and Graphics: Custom Report

AM-Roundhouse Btm 6950'

Current Conditions

8/18/22 7:15 PM (-07:00)
Updated Every 15 Minutes
Rain 12Hr 0.03 In
Rain 24Hr 0.03 In
Temp 69.3 °F   3.0
WindChill 69.3 °F
RH 35 %   22
Dew Pt 40.6 °F   10.0
Wet Bulb 52.5 °F   3.8
Wind Dir ESE | 119 °
Wind Spd 2.3 mph   1.4
Wind Gust 7.5 mph   5.3
Barometric Press 30.23 inHg   0.04
SnowDepth 0.3 in   0.0
Daily Max Temp 74.7 °F   3.5
Daily Min Temp 51.7 °F   12.3
Daily Rain 0.03 In
Yest MaxT 78.2 °F
Yest MinT 55.4 °F
Yest MaxGst 14.2 mph
Yest Rain 0.00 In
Monthly Rain 0.66 In
Seasonal Rainfall 45.04 In
BatVolt 13.2 V

Last 6 Hours

AM-Roundhouse Btm 6950'

15 Minute Data | America/Los_Angeles
as of 8/18/22 7:17 PM PDT
Date & Time Temp (°F) RH (%) Dew Pt (°F) Wet Bulb (°F) Wind Dir (°) Wind Spd (mph) Wind Gust (mph) WindChill (°F) Barometric Press (inHg) SnowDepth (in) Latest Rain (In) Daily Rain (In) Daily Min Temp (°F) Daily Max Temp (°F)
8/18/22 - 1915 69.3 35 40.6 52.5 ESE | 119 2.3 7.5 69.3 30.23 0.3 0.00 0.03 51.7 74.7
8/18/22 - 1900 70.4 32 39.3 52.4 NE | 54 3.2 8.2 70.4 30.23 0.7 0.00 0.03 51.7 74.7
8/18/22 - 1845 70.6 32 39.6 52.6 SE | 145 3.2 12.0 70.6 30.23 0.7 0.00 0.03 51.7 74.7
8/18/22 - 1830 71.2 32 40.1 53.0 ENE | 77 4.5 13.4 71.2 30.23 0.6 0.00 0.03 51.7 74.7
8/18/22 - 1815 71.4 32 39.9 53.0 NE | 42 4.6 16.1 71.4 30.23 0.6 0.00 0.03 51.7 74.7
8/18/22 - 1800 71.9 32 40.2 53.3 ENE | 73 4.4 10.5 71.9 30.23 0.4 0.00 0.03 51.7 74.7
8/18/22 - 1745 72.4 31 40.3 53.6 NNE | 22 4.1 11.3 72.4 30.24 0.1 0.00 0.03 51.7 74.7
8/18/22 - 1730 72.8 31 40.1 53.6 NE | 45 6.1 14.1 72.8 30.23 0.6 0.00 0.03 51.7 74.7
8/18/22 - 1715 73.4 31 40.5 54.0 NNE | 15 7.1 18.8 73.4 30.23 0.5 0.00 0.03 51.7 74.7
8/18/22 - 1700 72.9 32 41.1 54.0 NE | 42 5.0 14.0 72.9 30.24 0.4 0.00 0.03 51.7 74.7
8/18/22 - 1645 73.4 30 40.3 53.9 NNE | 29 5.3 16.8 73.4 30.23 0.4 0.00 0.03 51.7 74.7
8/18/22 - 1630 73.1 32 41.3 54.2 NE | 36 5.1 14.8 73.1 30.23 0.6 0.00 0.03 51.7 74.7
8/18/22 - 1615 73.5 32 41.7 54.5 NNE | 24 5.1 10.4 73.5 30.24 0.9 0.00 0.03 51.7 74.7
8/18/22 - 1600 73.4 33 42.8 55.0 NNE | 31 3.7 9.7 73.4 30.23 0.5 0.00 0.03 51.7 74.7
8/18/22 - 1545 73.4 34 43.5 55.3 ENE | 75 4.3 14.8 73.4 30.24 0.5 0.00 0.03 51.7 74.7
8/18/22 - 1530 73.6 33 42.7 55.0 E | 84 2.9 14.3 73.6 30.23 0.6 0.00 0.03 51.7 74.7
8/18/22 - 1515 73.1 32 41.8 54.4 ENE | 65 4.7 15.0 73.1 30.23 0.3 0.00 0.03 51.7 74.7
8/18/22 - 1500 73.4 33 42.6 54.9 NE | 42 4.9 13.8 73.4 30.24 0.6 0.00 0.03 51.7 74.7
8/18/22 - 1445 73.8 33 42.8 55.1 NE | 42 4.9 11.6 73.8 30.24 0.7 0.00 0.03 51.7 74.7
8/18/22 - 1430 73.8 32 42.5 55.0 ENE | 57 3.2 8.2 73.8 30.24 0.6 0.00 0.03 51.7 74.7
8/18/22 - 1415 72.9 34 43.0 54.8 ESE | 109 4.1 9.8 72.9 30.23 0.8 0.00 0.03 51.7 73.9
8/18/22 - 1400 72.6 34 42.4 54.5 ESE | 119 3.0 9.7 72.6 30.24 0.5 0.00 0.03 51.7 73.9
8/18/22 - 1345 71.8 38 44.9 55.3 NE | 47 3.1 10.0 71.8 30.26 0.7 0.00 0.03 51.7 73.9
8/18/22 - 1330 72.0 37 44.6 55.3 ESE | 107 2.1 8.0 72.0 30.25 0.2 0.00 0.03 51.7 73.9
Max 73.8 38 44.9 55.3 - 7.1 18.8 73.8 30.26 0.9 0.00 0.03 51.7 74.7
Avg 72.5 33 41.6 54.1 - 4.2 12.2 72.5 30.24 0.5 0.00 - - -
Min 69.3 30 39.3 52.4 - 2.1 7.5 69.3 30.23 0.1 0.00 0.03 51.7 73.9
Total - - - - - - - - - - 0.00 - - -

Last 30 Days

AM-Roundhouse Btm 6950'

Daily Data | America/Los_Angeles
as of 8/18/22 7:17 PM PDT
Date Daily Max Temp (°F) Time of Max Temp Daily Min Temp (°F) Time of Min Temp Wind Spd (mph) Daily Max Wind (mph) Max Wind Dir (°) Time of Max Wind Daily Rain (In) Seasonal Rainfall (In) SnowDepth (in) Max RH (%) Min RH (%) Wet Bulb (°F) WetB Hrs <28F (hrs) Min Press (inHg) Time of Min Press MinBV Day (V)
8/17/22 78.2 1234 55.4 2315 2.0 14.2 SSE | 160 1537 0.00 45.01 0.1 96 25 54.2 0.0 30.20 0155 13.0
8/16/22 81.2 1740 58.1 0700 1.8 9.9 S | 171 1811 0.02 45.01 0.4 47 17 50.7 0.0 30.17 1650 13.1
8/15/22 81.0 1305 54.1 0403 2.5 14.3 SSE | 149 1621 0.03 44.99 0.0 36 16 47.0 0.0 30.18 0505 13.1
8/14/22 76.8 1351 54.0 0700 2.7 15.7 S | 176 1640 0.03 44.96 0.9 48 11 45.7 0.0 30.20 1945 13.0
8/13/22 76.3 1450 53.4 0700 2.7 14.7 SSE | 162 1547 0.03 44.93 0.5 38 13 45.5 0.0 30.23 0340 13.0
8/12/22 73.8 1449 55.4 0745 3.2 17.3 SE | 144 1656 0.10 44.90 0.4 55 20 49.0 0.0 30.22 0445 13.1
8/11/22 72.9 1341 55.8 0637 2.8 15.2 ESE | 122 1320 0.02 44.80 0.0 69 29 51.6 0.0 30.23 1915 13.0
8/10/22 71.0 1341 57.9 0303 3.6 18.5 SSW | 203 1419 0.01 44.78 0.2 57 34 51.6 0.0 30.20 0350 13.1
8/9/22 73.7 1338 58.0 0704 2.8 15.5 SE | 140 1420 0.02 44.77 0.5 76 38 53.3 0.0 30.18 1650 13.1
8/8/22 76.4 1250 58.8 0642 2.1 14.1 S | 176 1530 0.01 44.75 0.0 71 34 54.6 0.0 30.19 1850 13.1
8/7/22 77.3 1431 56.2 0716 2.5 13.5 SSE | 164 1358 0.07 44.74 0.5 87 32 56.0 0.0 30.22 1855 13.1
8/6/22 73.6 1642 54.8 0454 2.1 12.3 NNW | 338 1512 0.11 44.67 0.6 92 35 56.4 0.0 30.18 0435 13.1
8/5/22 67.5 0244 57.0 0814 1.4 14.7 SW | 219 1940 0.00 44.56 0.0 97 50 57.2 0.0 30.16 0440 13.1
8/4/22 79.4 1323 59.4 0620 2.5 20.2 SE | 142 1610 0.07 44.56 0.0 70 37 56.7 0.0 30.16 1600 13.1
8/3/22 79.2 1322 56.9 0617 2.2 15.6 NW | 304 1708 0.03 44.49 0.3 80 33 57.0 0.0 30.19 1835 13.0
8/2/22 74.5 1444 56.0 0656 2.6 17.3 NNW | 348 1305 0.08 44.46 0.5 80 42 55.7 0.0 30.25 1730 13.1
8/1/22 69.5 1335 57.9 2335 3.8 17.2 SSE | 159 1710 0.00 44.38 0.3 76 48 55.3 0.0 30.24 0430 13.2
7/31/22 77.1 1312 63.0 0611 3.0 15.4 SSW | 203 2111 0.02 44.38 0.0 69 34 58.2 0.0 30.23 1520 13.1
7/30/22 87.3 1331 65.4 0729 2.3 11.0 SSW | 203 1355 0.01 44.36 0.2 54 14 56.2 0.0 30.21 0545 13.1
7/29/22 86.0 1729 63.9 0638 2.4 9.8 NNE | 16 1514 0.03 44.35 0.9 50 17 55.3 0.0 30.19 1845 13.1
7/28/22 86.2 1353 62.6 0652 2.3 11.6 N | 350 1206 0.01 44.32 0.3 58 15 55.8 0.0 30.19 1915 13.1
7/27/22 83.5 1445 62.2 0519 2.2 10.8 S | 187 1702 0.04 44.31 0.3 67 22 57.0 0.0 30.21 1840 13.1
7/26/22 79.6 1650 62.0 0640 1.7 10.4 S | 189 1813 0.00 44.27 0.8 53 14 53.0 0.0 30.18 0405 13.1
7/25/22 83.0 1518 58.8 0639 2.7 16.1 SSW | 200 1845 0.03 44.27 0.8 54 17 52.2 0.0 30.15 1825 13.1
7/24/22 79.5 1323 55.5 0630 2.5 12.3 SSW | 193 1727 0.03 44.24 0.7 57 18 49.3 0.0 30.16 1815 13.1
7/23/22 76.5 1538 54.2 0616 2.7 15.9 SE | 128 1148 0.02 44.21 0.6 43 12 46.0 0.0 30.16 1940 13.1
7/22/22 75.4 1427 56.0 0204 3.5 21.0 SSW | 201 1236 0.03 44.19 2.8 32 11 45.4 0.0 30.17 2335 13.1
7/21/22 79.9 1234 56.0 0533 3.0 17.4 SSE | 153 1723 0.03 44.16 1.9 54 13 48.1 0.0 30.23 2350 13.1
7/20/22 78.1 1658 58.3 0602 2.6 15.1 E | 96 1554 0.00 44.13 1.4 65 16 52.2 0.0 30.28 0245 13.2
7/19/22 75.8 1341 61.7 2324 2.9 15.6 SSE | 154 1626 0.00 44.13 1.3 55 35 54.6 0.0 30.26 0220 13.1
Max 87.3 - 65.4 - 3.8 21.0 - - 0.11 45.01 2.8 97 50 58.2 0.0 30.28 - 13.2
Avg - - - - 2.6 - - - - - 0.6 - - 52.7 - - - -
Min 67.5 - 53.4 - 1.4 9.8 - - 0.00 44.13 0.0 32 11 45.4 0.0 30.15 - 13.0
Calm: 0.0%
Calm: 0.0%